Terminal Aerodrome Forecast
Issued by NWS

Home | Current Version | Previous Version | Text Only | Print | Product List | Glossary On
Versions: 1 2 3 4 5 6 7 8 9 10 11 12 13 14 15 16 17 18 19 20 21 22 23 24 25 26
000
FTUS43 KDLH 260500
TAFHIB
TAF
KHIB 260539Z 2606/2706 16007KT P6SM FEW021 OVC045
      TEMPO 2607/2608 3SM -SN BKN021 OVC045
     FM260800 17007G14KT 1 1/2SM -SN OVC015
      TEMPO 2609/2612 3/4SM -SN OVC006
     FM261200 19007KT 3SM -SN OVC008
     FM261500 24005KT 6SM -SN OVC009
     FM261900 30008KT P6SM VCSH OVC015
     FM270100 33005KT P6SM BKN015 OVC050=

USA.gov is the U.S. government's official web portal to all federal, state and local government web resources and services.